Observations for LEEDS AND BRADFORD, United Kingdom (EGNM)

EGNM 200750Z 25012KT 4000 BR FEW003 BKN004 09/08 Q1028  
EGNM 200720Z 25012KT 4000 BR FEW004 BKN006 09/08 Q1028  
EGNM 200650Z 25011KT 9000 FEW005 BKN006 09/08 Q1028 
EGNM 200620Z 24005KT 200V310 9000 FEW005 BKN006 09/08 Q1028 
EGNM 200550Z 26008KT 230V290 9000 FEW004 BKN006 08/08 Q1028 
EGNM 200520Z 26009KT 9999 SCT006 09/08 Q1027
EGNM 200450Z 27015KT 9999 FEW009 09/08 Q1027
EGNM 200420Z 27014KT 9999 FEW009 09/08 Q1027
EGNM 200350Z 27016KT 9999 FEW008 09/08 Q1027
EGNM 200320Z 26014KT 9999 FEW008 BKN010 09/08 Q1027 
EGNM 200250Z 28014KT 9999 FEW008 SCT009 09/08 Q1027 
EGNM 200220Z 25008KT 200V310 9999 BKN009 09/08 Q1026
EGNM 200150Z 26005KT 190V360 9999 BKN011 10/08 Q1027
EGNM 200120Z 25008KT 220V290 9999 BKN010 09/08 Q1027
EGNM 200050Z 26011KT 230V290 9999 SCT010 09/08 Q1026
EGNM 200020Z 26014KT 9999 SCT009 09/08 Q1026
EGNM 192350Z 25017KT 9999 BKN009 09/08 Q1026
EGNM 192320Z 26018KT 9999 BKN008 09/08 Q1026
EGNM 192250Z 26012KT 9999 BKN005 09/08 Q1026
EGNM 192220Z 25007KT 200V300 9999 BKN005 09/08 Q1026
EGNM 192150Z 24008KT 210V280 9999 BKN005 09/08 Q1026
EGNM 192120Z 25011KT 9999 SCT007 BKN012 09/08 Q1025 
EGNM 192050Z 25011KT 9999 SCT008 BKN016 09/08 Q1025 
EGNM 192020Z 25011KT 9999 SCT008 BKN016 09/07 Q1025 
EGNM 191950Z 26014KT 9999 SCT010 SCT015 09/07 Q1025 
EGNM 191920Z 26014KT 9999 SCT011 BKN014 08/07 Q1025 
EGNM 191850Z 26011KT 9999 BKN014 09/07 Q1025
EGNM 191820Z 26005KT 230V300 9999 BKN017 10/07 Q1025
EGNM 191750Z 25007KT 220V280 9999 BKN018 10/07 Q1025
EGNM 191720Z 25008KT 200V290 9999 BKN018 10/07 Q1024
EGNM 191650Z 25011KT 9999 BKN020 10/07 Q1024
EGNM 191620Z 23011KT 200V270 9999 BKN020 10/07 Q1024
EGNM 191550Z 24009KT 200V270 9999 BKN020 11/07 Q1023
EGNM 191520Z 25012KT 9999 BKN024 11/06 Q1023
EGNM 191450Z 25015KT 9999 SCT025 11/05 Q1022
EGNM 191420Z 24014KT 210V280 9999 SCT019 SCT028 12/06 Q1023 
EGNM 191350Z 25014KT 9999 SCT019 SCT028 11/06 Q1023 
EGNM 191320Z 25012KT 220V280 9999 SCT019 SCT031 10/06 Q1024 
EGNM 191250Z 25015KT 9999 -SHRA FEW018 SCT021 10/06 Q1024   
EGNM 191220Z 25012KT 9999 FEW019 SCT028 10/06 Q1024 
EGNM 191150Z 24009KT 200V270 9999 FEW008 SCT020 10/07 Q1024 
EGNM 191120Z 24011KT 200V280 9999 FEW008 SCT020 10/06 Q1024 
EGNM 191050Z 25010KT 210V280 9999 FEW008 SCT018 10/06 Q1024 
EGNM 191020Z 25009KT 210V290 9999 FEW008 SCT020 10/07 Q1024 
EGNM 190950Z 22005KT 190V250 9999 SCT007 SCT012 09/07 Q1024 
EGNM 190920Z 23007KT 9999 SCT009 SCT031 08/07 Q1024 
EGNM 190850Z 23008KT 200V270 9999 SCT010 SCT035 08/06 Q1024 
EGNM 190820Z 24007KT 9999 FEW029 BKN043 08/07 Q1024 
EGNM 190750Z 25005KT 9999 FEW019 BKN039 07/06 Q1024 
EGNM 190720Z 22004KT 9999 FEW013 SCT041 06/06 Q1023